Aeroporto :







RITROVATECI SU...

 
LOGIN :

Iscrizione | Disclaimer

   EN    FR    IT 

 









Sommario :    VFR   VFR Marginale   IFR   IFR Intensivo   IFR Molto Intensivo
Visibilità : 
Base nubi : 
>= 8 km
>= 3000ft
5 / 8 km
1000 / 3000 ft
1500m / 5 km
500 / 1000 ft
800 / 1500m
200 / 500 ft
< 800m
< 200 ft
Simboli :   Temporali  Nebbia  Neve Forte  Precipitazioni Forti  Vento > 20 kt






- Altitudine del aeroporto : 108 ft
- Codice IATA : YAY


CYAY - St Anthony

ULTIMO METAR :
  • 151000Z AUTO 25006KT 9SM CLR 11/08 A3022 RMK SLP237

METARs OBSOLETI :
  • 150900Z AUTO 22005KT 9SM CLR 07/06 A3022 RMK SLP236

TAF TAF CYAY
Valido dal 15 a 08 ore il 15 a 20 ore UTC


150738Z 1508/1520 23005KT P6SM SKC
BECMG 1511/1513 27010G20KT
BECMG 1518/1520 27018G28KT RMK FCST BASED ON AUTO OBS. NXT FCST BY 151400Z
FIR CZQX / America del Nord



MetMap, La meteo Aeronautica in un colpo d'occhio ! - Copyright ORBIFLY Dicembre 2007 - Disclaimer

ORBIFLY MET'MAP TEAM :

Programmazione e sviluppo : Alexandra Zaïnal
Concezione : Baudouin d'Aumeries
Aiuto per la programmazione : Marc-Olivier Méhu
Supporto tecnico e logistico : Manuel Goepfert
Aiuto per la traduzione : Arnaldo La Scala

Contatto : metmap@orbifly.com




FONTI E CREDITI :

   NOAA